Newtown, Pennsylvania
Current Conditions -  °F | °C
As of 9:53 PM on Monday 20 Oct 2014 (Local Time) from KTTN Reporting Station
Clear Clear  
Wind Chill: 51°   Ceiling: Unl
Heat Index: 51°   Visibility: 10mi
Dew Point: 41°   Wind: 3mph
Humidity: 68%   Direction: 200°SSW
Pressure: 29.97"   Gusts: NA
Location:  40.23°N, 74.94°W
Report Text: KTTN 210153Z AUTO 20003KT 10SM CLR 11/05 A2997 RMK AO2 SLP142 T01060050
Loading
Personal Weather Stations






























Interactive Weather Map
Tropical Storm Tracking
New forecast layout! Learn more

10-Day Weather Forecast

Advertisements
Track Severe Weather on mobile